createdAt,value
2023-03-19T11:48:22.430Z,12.25
2023-03-19T11:51:50.010Z,10.18
2023-03-19T11:55:19.901Z,15.53
2023-03-19T11:58:52.045Z,13.95
2023-03-19T12:02:30.616Z,10.32
2023-03-19T12:06:19.106Z,9.08
2023-03-19T12:09:38.483Z,10.72
2023-03-19T12:13:08.751Z,6.35
2023-03-19T12:16:45.906Z,9.58
2023-03-19T12:20:19.896Z,8.48
2023-03-19T12:23:35.356Z,16.75
2023-03-19T12:27:06.562Z,13.25
2023-03-19T12:30:29.709Z,8.75
2023-03-19T12:34:05.645Z,8.05
2023-03-19T12:37:34.260Z,10.98
2023-03-19T12:40:49.118Z,9.33
2023-03-19T12:44:08.598Z,10.48
2023-03-19T12:47:26.858Z,7.28
2023-03-19T12:50:33.959Z,6.83
2023-03-19T12:53:59.336Z,11.18
2023-03-19T12:57:17.940Z,7.70
2023-03-19T13:00:51.557Z,10.00
2023-03-19T13:04:26.192Z,6.95
2023-03-19T13:07:44.344Z,6.55
2023-03-19T13:10:50.251Z,9.15
2023-03-19T13:14:12.343Z,8.33
2023-03-19T13:17:24.669Z,6.83
2023-03-19T13:20:55.944Z,7.80
2023-03-19T13:24:04.554Z,10.90
2023-03-19T13:27:12.442Z,8.88
2023-03-19T13:30:31.568Z,9.25
2023-03-19T13:33:42.229Z,8.20
2023-03-19T13:36:54.490Z,8.23
2023-03-19T13:40:02.330Z,7.78
2023-03-19T13:43:27.418Z,8.50
2023-03-19T13:49:45.379Z,9.68
2023-03-19T13:53:08.917Z,12.53
2023-03-19T13:59:43.427Z,11.48
2023-03-19T14:02:58.941Z,9.40
2023-03-19T14:06:11.672Z,15.88
2023-03-19T14:09:21.514Z,14.93
2023-03-19T14:12:36.729Z,8.80
2023-03-19T14:15:43.205Z,11.55
2023-03-19T14:18:51.143Z,9.45
2023-03-19T14:22:02.617Z,7.62
2023-03-19T14:25:23.354Z,12.53
2023-03-19T14:28:32.247Z,16.50
2023-03-19T14:31:56.643Z,9.65
2023-03-19T14:35:06.752Z,11.25
2023-03-19T14:38:12.722Z,10.40
2023-03-19T14:41:18.523Z,8.58
2023-03-19T14:44:45.851Z,10.28
2023-03-19T14:48:15.748Z,11.78
2023-03-19T14:52:06.931Z,14.50
2023-03-19T14:55:19.693Z,10.28
2023-03-19T14:58:26.909Z,9.35
2023-03-19T15:01:34.350Z,11.00
2023-03-19T15:04:41.437Z,11.08
2023-03-19T15:07:51.264Z,12.23
2023-03-19T15:11:05.118Z,9.15
2023-03-19T15:14:22.433Z,10.40
2023-03-19T15:17:51.603Z,20.50
2023-03-19T15:21:04.402Z,10.82
2023-03-19T15:24:11.829Z,7.53
2023-03-19T15:27:19.954Z,6.90
2023-03-19T15:30:53.871Z,6.03
2023-03-19T15:37:01.500Z,9.08
2023-03-19T15:40:10.354Z,8.00
2023-03-19T15:43:16.923Z,10.38
2023-03-19T15:46:26.731Z,6.90
2023-03-19T15:49:52.641Z,9.43
2023-03-19T15:53:02.470Z,16.30
2023-03-19T15:56:10.096Z,22.02
2023-03-19T15:59:15.691Z,15.20
2023-03-19T16:02:29.747Z,16.17
2023-03-19T16:08:50.552Z,10.80
2023-03-19T16:11:58.012Z,9.00
2023-03-19T16:15:04.311Z,22.15
2023-03-19T16:18:10.412Z,15.28
2023-03-19T16:21:29.964Z,11.55
2023-03-19T16:24:47.073Z,11.43
2023-03-19T16:27:55.295Z,15.78
2023-03-19T16:31:04.620Z,20.50
2023-03-19T16:34:11.146Z,8.98
2023-03-19T16:37:17.184Z,10.40
2023-03-19T16:40:38.140Z,22.62
2023-03-19T16:43:45.863Z,14.78
2023-03-19T16:46:51.929Z,13.35
2023-03-19T16:50:00.709Z,13.50
2023-03-19T16:53:08.207Z,13.90
2023-03-19T16:56:15.897Z,20.82
2023-03-19T16:59:23.523Z,33.35
2023-03-19T17:02:31.901Z,23.65
2023-03-19T17:05:38.322Z,23.07
2023-03-19T17:08:46.719Z,16.20
2023-03-19T17:11:54.793Z,24.92
2023-03-19T17:15:02.730Z,19.05
2023-03-19T17:18:09.256Z,19.92
2023-03-19T17:21:24.804Z,12.30
2023-03-19T17:24:38.751Z,61.98
2023-03-19T17:27:46.393Z,31.27
2023-03-19T17:30:53.623Z,20.43
2023-03-19T17:33:59.010Z,24.85
2023-03-19T17:37:11.131Z,14.68
2023-03-19T17:40:17.378Z,18.02
2023-03-19T17:43:26.410Z,18.23
2023-03-19T17:46:37.414Z,23.57
2023-03-19T17:49:48.076Z,19.60
2023-03-19T17:52:55.183Z,17.40
2023-03-19T17:56:03.146Z,18.20
2023-03-19T17:59:10.481Z,19.75
2023-03-19T18:02:17.267Z,17.10
2023-03-19T18:05:38.122Z,15.90
2023-03-19T18:08:45.132Z,20.43
2023-03-19T18:11:51.379Z,21.35
2023-03-19T18:14:58.860Z,23.95
2023-03-19T18:18:11.550Z,31.65
2023-03-19T18:24:25.407Z,56.33
2023-03-19T18:27:33.366Z,45.65
2023-03-19T18:30:38.958Z,66.67
2023-03-19T18:33:46.533Z,69.45
2023-03-19T18:36:52.629Z,56.53
2023-03-19T18:40:00.714Z,58.02
2023-03-19T18:43:08.294Z,38.25
2023-03-19T18:46:15.833Z,35.05
2023-03-19T18:49:35.346Z,37.78
2023-03-19T18:52:41.093Z,36.53
2023-03-19T18:55:48.285Z,30.92
2023-03-19T18:58:53.933Z,42.33
2023-03-19T19:02:00.329Z,92.90
2023-03-19T19:05:08.851Z,108.40
2023-03-19T19:08:18.088Z,95.47
2023-03-19T19:11:27.393Z,146.35
2023-03-19T19:14:37.517Z,154.42
2023-03-19T19:17:44.811Z,145.85
2023-03-19T19:20:51.525Z,95.53
2023-03-19T19:23:57.606Z,95.90
2023-03-19T19:27:08.422Z,89.72
2023-03-19T19:30:18.616Z,65.40
2023-03-19T19:33:36.155Z,65.22
2023-03-19T19:36:42.842Z,48.78
2023-03-19T19:39:48.318Z,35.58
2023-03-19T19:42:55.152Z,38.90
2023-03-19T19:46:04.311Z,40.80
2023-03-19T19:49:13.551Z,34.95
2023-03-19T19:52:20.704Z,32.40
2023-03-19T19:55:27.203Z,34.48
2023-03-19T19:58:40.219Z,29.92
2023-03-19T20:01:47.293Z,28.42
2023-03-19T20:04:54.987Z,27.17
2023-03-19T20:08:00.161Z,32.25
2023-03-19T20:11:06.283Z,44.53
2023-03-19T20:14:13.909Z,38.83
2023-03-19T20:17:20.711Z,41.90
2023-03-19T20:20:41.184Z,35.52
2023-03-19T20:23:48.210Z,38.15
2023-03-19T20:26:55.211Z,32.23
2023-03-19T20:30:02.269Z,36.08
2023-03-19T20:33:08.955Z,33.00
2023-03-19T20:36:17.698Z,30.88
2023-03-19T20:39:26.252Z,29.42
2023-03-19T20:42:32.509Z,25.95
2023-03-19T20:45:44.910Z,37.55
2023-03-19T20:48:51.269Z,36.80
2023-03-19T20:51:56.639Z,51.40
2023-03-19T20:55:04.115Z,29.65
2023-03-19T20:58:10.237Z,26.25
2023-03-19T21:01:17.319Z,24.45
2023-03-19T21:04:28.862Z,27.30
2023-03-19T21:07:46.884Z,42.10
2023-03-19T21:10:57.524Z,51.95
2023-03-19T21:14:06.095Z,53.08
2023-03-19T21:17:12.506Z,39.98
2023-03-19T21:20:21.140Z,40.10
2023-03-19T21:23:49.332Z,24.98
2023-03-19T21:26:55.523Z,28.05
2023-03-19T21:30:02.291Z,19.10
2023-03-19T21:33:12.336Z,16.82
2023-03-19T21:36:20.754Z,19.42
2023-03-19T21:39:22.040Z,20.52
2023-03-19T21:42:17.509Z,24.65
2023-03-19T21:45:39.937Z,19.92
2023-03-19T21:48:47.711Z,21.95
2023-03-19T21:51:55.088Z,19.70
2023-03-19T21:55:00.740Z,24.55
2023-03-19T21:58:10.987Z,22.32
2023-03-19T22:01:18.382Z,20.08
2023-03-19T22:04:26.745Z,16.17
2023-03-19T22:07:32.980Z,15.95
2023-03-19T22:10:42.856Z,20.15
2023-03-19T22:13:51.147Z,25.65
2023-03-19T22:16:58.619Z,23.62
2023-03-19T22:20:05.725Z,20.82
2023-03-19T22:23:13.824Z,22.02
2023-03-19T22:26:23.386Z,25.00
2023-03-19T22:29:34.852Z,20.68
2023-03-19T22:32:41.756Z,23.05
2023-03-19T22:35:49.296Z,23.83
2023-03-19T22:38:57.100Z,21.30
2023-03-19T22:42:03.702Z,20.00
2023-03-19T22:45:08.461Z,19.87
2023-03-19T22:48:15.101Z,21.12
2023-03-19T22:51:22.024Z,20.72
2023-03-19T22:54:28.374Z,20.68
2023-03-19T22:57:34.465Z,18.37
2023-03-19T23:00:39.849Z,24.85
2023-03-19T23:03:49.099Z,22.95
2023-03-19T23:06:57.293Z,21.75
2023-03-19T23:10:03.198Z,29.82
2023-03-19T23:13:10.488Z,20.90
2023-03-19T23:16:16.605Z,23.05
2023-03-19T23:19:41.248Z,22.95
2023-03-19T23:22:49.376Z,22.05
2023-03-19T23:25:55.407Z,22.25
2023-03-19T23:29:02.115Z,21.65
2023-03-19T23:32:07.839Z,17.87
2023-03-19T23:35:14.670Z,16.57
2023-03-19T23:38:20.509Z,18.48
2023-03-19T23:41:37.742Z,20.32
2023-03-19T23:44:44.173Z,17.23
2023-03-19T23:47:52.055Z,16.87
2023-03-19T23:50:59.618Z,20.08
2023-03-19T23:54:06.032Z,23.85
2023-03-19T23:57:14.786Z,21.50
